createdAt,value
2022-11-21T00:00:39.678Z,65.06
2022-11-21T00:02:45.126Z,64.93
2022-11-21T00:04:50.478Z,65.32
2022-11-21T00:06:56.804Z,64.88
2022-11-21T00:09:03.423Z,65.23
2022-11-21T00:11:08.822Z,65.56
2022-11-21T00:13:18.332Z,65.72
2022-11-21T00:15:29.039Z,65.38
2022-11-21T00:17:34.682Z,65.63
2022-11-21T00:19:41.103Z,65.80
2022-11-21T00:21:46.658Z,65.98
2022-11-21T00:23:52.015Z,65.32
2022-11-21T00:25:58.329Z,65.35
2022-11-21T00:28:04.001Z,65.82
2022-11-21T00:30:13.414Z,65.68
2022-11-21T00:32:22.427Z,65.47
2022-11-21T00:34:28.045Z,65.53
2022-11-21T00:36:33.522Z,65.05
2022-11-21T00:38:41.055Z,65.46
2022-11-21T00:40:47.690Z,65.84
2022-11-21T00:42:53.166Z,66.06
2022-11-21T00:44:59.478Z,66.13
2022-11-21T00:47:07.190Z,66.09
2022-11-21T00:49:15.714Z,66.49
2022-11-21T00:51:21.951Z,66.54
2022-11-21T00:53:27.419Z,66.47
2022-11-21T00:55:32.789Z,66.41
2022-11-21T00:57:39.009Z,66.48
2022-11-21T00:59:44.344Z,66.53
2022-11-21T01:01:49.761Z,66.34
2022-11-21T01:03:56.022Z,66.20
2022-11-21T01:06:10.322Z,66.08
2022-11-21T01:08:15.651Z,65.88
2022-11-21T01:10:22.097Z,65.85
2022-11-21T01:12:27.755Z,65.76
2022-11-21T01:14:33.261Z,65.31
2022-11-21T01:16:39.485Z,65.19
2022-11-21T01:18:45.703Z,64.97
2022-11-21T01:20:51.159Z,64.40
2022-11-21T01:23:00.174Z,64.44
2022-11-21T01:25:09.113Z,64.30
2022-11-21T01:27:14.726Z,64.40
2022-11-21T01:29:21.353Z,64.19
2022-11-21T01:31:30.155Z,64.39
2022-11-21T01:33:36.541Z,64.52
2022-11-21T01:35:42.705Z,64.88
2022-11-21T01:37:51.118Z,64.94
2022-11-21T01:39:59.475Z,65.11
2022-11-21T01:42:08.299Z,65.17
2022-11-21T01:44:22.183Z,64.99
2022-11-21T01:46:28.914Z,65.11
2022-11-21T01:48:44.725Z,64.89
2022-11-21T01:50:50.397Z,64.86
2022-11-21T01:52:56.232Z,65.35
2022-11-21T01:55:12.727Z,65.59
2022-11-21T01:57:26.957Z,65.59
2022-11-21T01:59:37.685Z,65.50
2022-11-21T02:01:45.602Z,65.58
2022-11-21T02:03:53.092Z,65.90
2022-11-21T02:06:00.376Z,65.52
2022-11-21T02:08:18.015Z,65.82
2022-11-21T02:10:28.061Z,65.89
2022-11-21T02:12:43.202Z,65.99
2022-11-21T02:14:51.406Z,65.71
2022-11-21T02:17:05.694Z,65.99
2022-11-21T02:19:23.277Z,65.86
2022-11-21T02:21:49.514Z,65.76
2022-11-21T02:24:07.132Z,65.66
2022-11-21T02:26:17.301Z,65.59
2022-11-21T02:28:27.256Z,66.06
2022-11-21T02:30:38.697Z,66.05
2022-11-21T02:32:49.673Z,66.04
2022-11-21T02:34:55.898Z,66.39
2022-11-21T02:37:03.988Z,66.71
2022-11-21T02:39:12.615Z,67.04
2022-11-21T02:41:29.362Z,67.01
2022-11-21T02:43:44.753Z,67.11
2022-11-21T02:45:50.622Z,67.17
2022-11-21T02:48:03.910Z,67.10
2022-11-21T02:50:18.353Z,66.95
2022-11-21T02:52:23.705Z,67.27
2022-11-21T02:54:30.167Z,66.70
2022-11-21T02:56:38.494Z,66.43
2022-11-21T02:58:44.084Z,66.00
2022-11-21T03:00:50.397Z,66.08
2022-11-21T03:02:56.325Z,66.22
2022-11-21T03:05:04.363Z,66.09
2022-11-21T03:07:10.888Z,66.43
2022-11-21T03:09:16.559Z,66.56
2022-11-21T03:11:21.853Z,66.48
2022-11-21T03:13:30.865Z,66.21
2022-11-21T03:15:38.220Z,66.54
2022-11-21T03:17:44.268Z,66.53
2022-11-21T03:19:50.528Z,66.50
2022-11-21T03:21:55.997Z,66.36
2022-11-21T03:24:03.528Z,65.99
2022-11-21T03:26:09.881Z,65.80
2022-11-21T03:28:15.213Z,65.48
2022-11-21T03:30:24.631Z,65.77
2022-11-21T03:32:30.808Z,65.51
2022-11-21T03:34:36.730Z,65.18
2022-11-21T03:36:42.270Z,65.34
2022-11-21T03:38:48.700Z,65.41
2022-11-21T03:40:54.163Z,64.99
2022-11-21T03:42:59.518Z,65.02
2022-11-21T03:45:09.623Z,64.85
2022-11-21T03:47:17.760Z,65.22
2022-11-21T03:49:23.125Z,64.93
2022-11-21T03:51:30.143Z,65.42
2022-11-21T03:53:35.771Z,64.74
2022-11-21T03:55:41.641Z,65.47
2022-11-21T03:57:47.885Z,65.57
2022-11-21T03:59:53.274Z,65.24
2022-11-21T04:01:58.617Z,65.19
2022-11-21T04:04:08.486Z,65.11
2022-11-21T04:06:17.118Z,64.78
2022-11-21T04:08:22.467Z,65.12
2022-11-21T04:10:28.754Z,64.84
2022-11-21T04:12:34.072Z,65.46
2022-11-21T04:14:39.497Z,65.34
2022-11-21T04:16:45.861Z,64.91
2022-11-21T04:18:51.330Z,65.17
2022-11-21T04:21:03.878Z,65.08
2022-11-21T04:23:10.975Z,65.74
2022-11-21T04:25:16.734Z,65.94
2022-11-21T04:27:22.079Z,65.78
2022-11-21T04:29:28.428Z,65.71
2022-11-21T04:31:33.843Z,65.66
2022-11-21T04:33:39.540Z,65.66
2022-11-21T04:35:48.041Z,65.80
2022-11-21T04:37:56.631Z,65.73
2022-11-21T04:40:03.118Z,66.01
2022-11-21T04:42:09.500Z,65.26
2022-11-21T04:44:15.022Z,65.40
2022-11-21T04:46:20.643Z,65.50
2022-11-21T04:48:27.131Z,65.41
2022-11-21T04:50:32.500Z,65.69
2022-11-21T04:52:39.087Z,65.30
2022-11-21T04:54:48.315Z,65.33
2022-11-21T04:56:53.618Z,65.47
2022-11-21T04:58:58.977Z,65.50
2022-11-21T05:01:11.149Z,66.31
2022-11-21T05:03:16.559Z,66.18
2022-11-21T05:05:22.338Z,65.81
2022-11-21T05:07:28.667Z,66.17
2022-11-21T05:09:34.072Z,66.86
2022-11-21T05:11:58.021Z,65.98
2022-11-21T05:14:04.448Z,66.33
2022-11-21T05:16:10.786Z,66.58
2022-11-21T05:18:16.721Z,65.89
2022-11-21T05:20:22.989Z,67.10
2022-11-21T05:22:28.480Z,67.22
2022-11-21T05:24:33.857Z,66.94
2022-11-21T05:26:42.992Z,66.85
2022-11-21T05:28:48.846Z,67.07
2022-11-21T05:30:54.204Z,68.10
2022-11-21T05:33:00.427Z,68.73
2022-11-21T05:35:08.494Z,68.04
2022-11-21T05:37:13.929Z,68.57
2022-11-21T05:39:20.336Z,68.81
2022-11-21T05:41:25.824Z,68.71
2022-11-21T05:43:46.290Z,69.63
2022-11-21T05:45:53.385Z,68.86
2022-11-21T05:47:58.893Z,68.70
2022-11-21T05:50:06.575Z,69.16
2022-11-21T05:52:12.942Z,69.69
2022-11-21T05:54:18.853Z,69.19
2022-11-21T05:56:24.200Z,70.06
2022-11-21T05:58:35.105Z,69.08
2022-11-21T06:00:41.082Z,69.72
2022-11-21T06:03:04.303Z,70.34
2022-11-21T06:05:12.100Z,69.50
2022-11-21T06:07:17.569Z,68.70
2022-11-21T06:09:22.966Z,69.28
2022-11-21T06:11:30.140Z,69.49
2022-11-21T06:13:39.203Z,69.33
2022-11-21T06:15:44.622Z,68.64
2022-11-21T06:17:50.903Z,68.94
2022-11-21T06:19:56.546Z,68.87
2022-11-21T06:22:05.592Z,68.53
2022-11-21T06:24:12.596Z,68.39
2022-11-21T06:26:21.025Z,69.00
2022-11-21T06:28:26.684Z,69.03
2022-11-21T06:30:36.574Z,68.94
2022-11-21T06:32:42.050Z,68.27
2022-11-21T06:34:47.467Z,68.72
2022-11-21T06:36:53.730Z,68.63
2022-11-21T06:39:00.037Z,68.54
2022-11-21T06:41:17.774Z,68.79
2022-11-21T06:43:25.609Z,68.46
2022-11-21T06:45:30.959Z,68.93
2022-11-21T06:47:39.935Z,68.92
2022-11-21T06:49:46.143Z,68.66
2022-11-21T06:51:51.509Z,68.72
2022-11-21T06:53:59.961Z,69.20
2022-11-21T06:56:08.987Z,69.08
2022-11-21T06:58:14.680Z,69.25
2022-11-21T07:00:22.089Z,69.13
2022-11-21T07:02:28.342Z,68.51
2022-11-21T07:04:37.464Z,69.04
2022-11-21T07:06:42.800Z,69.26
2022-11-21T07:09:17.577Z,69.13
2022-11-21T07:11:24.914Z,69.16
2022-11-21T07:13:40.884Z,69.46
2022-11-21T07:15:49.974Z,69.38
2022-11-21T07:17:56.085Z,69.50
2022-11-21T07:20:09.921Z,69.06
2022-11-21T07:22:16.151Z,69.45
2022-11-21T07:24:22.054Z,69.33
2022-11-21T07:26:27.707Z,69.25
2022-11-21T07:28:43.112Z,69.05
2022-11-21T07:30:48.745Z,68.78
2022-11-21T07:33:00.104Z,69.06
2022-11-21T07:35:14.561Z,68.33
2022-11-21T07:37:19.945Z,68.39
2022-11-21T07:39:25.883Z,68.12
2022-11-21T07:41:32.611Z,68.26
2022-11-21T07:43:38.199Z,68.36
2022-11-21T07:45:43.583Z,67.90
2022-11-21T07:47:50.289Z,67.96
2022-11-21T07:49:56.530Z,67.78
2022-11-21T07:52:08.798Z,67.24
2022-11-21T07:54:15.413Z,67.40
2022-11-21T07:56:20.730Z,67.16
2022-11-21T07:58:26.516Z,67.19
2022-11-21T08:00:35.422Z,66.73
2022-11-21T08:02:42.013Z,66.49
2022-11-21T08:04:47.623Z,66.80
2022-11-21T08:06:53.848Z,66.31
2022-11-21T08:09:03.559Z,65.88
2022-11-21T08:11:11.578Z,65.96
2022-11-21T08:13:18.486Z,65.89
2022-11-21T08:15:23.813Z,66.03
2022-11-21T08:17:29.487Z,66.02
2022-11-21T08:19:36.036Z,65.35
2022-11-21T08:21:41.413Z,65.37
2022-11-21T08:23:46.832Z,65.63
2022-11-21T08:25:55.788Z,64.32
2022-11-21T08:28:05.559Z,64.71
2022-11-21T08:30:14.338Z,65.10
2022-11-21T08:32:20.632Z,64.86
2022-11-21T08:34:26.213Z,64.67
2022-11-21T08:36:31.628Z,63.76
2022-11-21T08:38:37.911Z,64.20
2022-11-21T08:40:43.725Z,64.05
2022-11-21T08:42:55.958Z,63.35
2022-11-21T08:45:04.076Z,63.43
2022-11-21T08:47:09.633Z,63.84
2022-11-21T08:49:15.603Z,63.72
2022-11-21T08:51:21.884Z,63.19
2022-11-21T08:53:27.429Z,62.55
2022-11-21T08:55:34.156Z,62.21
2022-11-21T08:57:41.546Z,62.57
2022-11-21T08:59:49.672Z,63.25
2022-11-21T09:01:55.412Z,62.36
2022-11-21T09:04:03.462Z,61.84
2022-11-21T09:06:09.299Z,62.15
2022-11-21T09:08:14.649Z,62.40
2022-11-21T09:10:21.885Z,61.47
2022-11-21T09:12:27.402Z,62.20
2022-11-21T09:14:49.533Z,62.27
2022-11-21T09:17:14.705Z,63.03
2022-11-21T09:19:21.232Z,61.63
2022-11-21T09:21:26.567Z,61.33
2022-11-21T09:23:32.881Z,62.22
2022-11-21T09:25:38.905Z,62.02
2022-11-21T09:27:44.296Z,62.13
2022-11-21T09:29:54.032Z,62.12
2022-11-21T09:32:03.550Z,61.66
2022-11-21T09:34:09.101Z,60.51
2022-11-21T09:36:15.435Z,61.43
2022-11-21T09:38:24.023Z,61.83
2022-11-21T09:40:33.488Z,61.25
2022-11-21T09:43:06.464Z,61.36
2022-11-21T09:45:22.582Z,60.55
2022-11-21T09:47:34.758Z,61.23
2022-11-21T09:49:50.195Z,60.58
2022-11-21T09:51:59.861Z,61.20
2022-11-21T09:54:22.531Z,60.83
2022-11-21T09:56:37.262Z,62.28
2022-11-21T09:58:51.464Z,62.19
2022-11-21T10:00:58.588Z,61.10
2022-11-21T10:03:08.074Z,61.95
2022-11-21T10:05:18.277Z,60.76
2022-11-21T10:07:32.269Z,60.24
2022-11-21T10:10:09.494Z,60.44
2022-11-21T10:12:40.633Z,60.06
2022-11-21T10:15:07.761Z,60.89
2022-11-21T10:17:30.415Z,60.90
2022-11-21T10:20:07.063Z,59.98
2022-11-21T10:22:59.140Z,60.83
2022-11-21T10:25:19.772Z,60.12
2022-11-21T10:27:41.078Z,60.39
2022-11-21T10:29:56.567Z,60.32
2022-11-21T10:32:14.433Z,61.18
2022-11-21T10:34:28.745Z,60.94
2022-11-21T10:36:43.135Z,61.31
2022-11-21T10:38:50.407Z,60.77
2022-11-21T10:41:09.383Z,61.39
2022-11-21T10:43:59.865Z,60.46
2022-11-21T10:46:08.662Z,60.23
2022-11-21T10:48:14.166Z,60.28
2022-11-21T10:50:53.410Z,59.59
2022-11-21T10:53:34.457Z,59.82
2022-11-21T10:56:04.396Z,59.79
2022-11-21T10:58:21.944Z,59.96
2022-11-21T11:00:30.351Z,58.79
2022-11-21T11:02:35.968Z,59.47
2022-11-21T11:04:49.214Z,59.38
2022-11-21T11:07:00.407Z,59.11
2022-11-21T11:09:28.793Z,58.75
2022-11-21T11:11:35.464Z,58.81
2022-11-21T11:14:03.748Z,59.05
2022-11-21T11:16:22.119Z,58.78
2022-11-21T11:18:30.289Z,58.38
2022-11-21T11:20:41.640Z,58.45
2022-11-21T11:22:48.100Z,58.74
2022-11-21T11:25:00.807Z,58.67
2022-11-21T11:27:08.751Z,59.05
2022-11-21T11:29:20.715Z,58.48
2022-11-21T11:31:27.112Z,58.34
2022-11-21T11:33:36.672Z,58.50
2022-11-21T11:35:43.434Z,58.35
2022-11-21T11:38:03.997Z,58.36
2022-11-21T11:40:28.880Z,58.40
2022-11-21T11:43:25.646Z,58.34
2022-11-21T11:46:15.582Z,58.37
2022-11-21T11:48:23.200Z,58.51
2022-11-21T11:50:38.194Z,58.45
2022-11-21T11:53:07.062Z,58.33
2022-11-21T11:55:26.549Z,58.21
2022-11-21T11:57:36.157Z,58.22
2022-11-21T11:59:51.646Z,58.51
2022-11-21T12:02:11.991Z,58.38
2022-11-21T12:04:22.654Z,58.37
2022-11-21T12:07:18.001Z,58.40
2022-11-21T12:09:14.879Z,58.07
2022-11-21T12:11:52.792Z,58.49
2022-11-21T12:14:08.887Z,58.11
2022-11-21T12:16:14.764Z,57.87
2022-11-21T12:18:35.082Z,57.60
2022-11-21T12:20:59.280Z,57.97
2022-11-21T12:23:07.659Z,57.87
2022-11-21T12:25:15.757Z,57.91
2022-11-21T12:27:34.988Z,56.86
2022-11-21T12:30:10.136Z,57.05
2022-11-21T12:32:41.024Z,56.95
2022-11-21T12:35:20.846Z,57.18
2022-11-21T12:37:47.154Z,57.05
2022-11-21T12:40:08.026Z,56.87
2022-11-21T12:42:44.323Z,57.34
2022-11-21T12:45:18.191Z,57.14
2022-11-21T12:48:30.030Z,57.77
2022-11-21T12:51:07.111Z,58.30
2022-11-21T12:53:46.927Z,58.34
2022-11-21T12:56:06.442Z,58.34
2022-11-21T12:58:34.071Z,58.28
2022-11-21T13:01:03.891Z,58.19
2022-11-21T13:03:42.643Z,58.05
2022-11-21T13:05:55.277Z,57.54
2022-11-21T13:08:11.605Z,57.42
2022-11-21T13:10:21.050Z,57.72
2022-11-21T13:12:43.477Z,57.35
2022-11-21T13:14:58.932Z,57.16
2022-11-21T13:17:25.425Z,57.63
2022-11-21T13:19:47.146Z,57.84
2022-11-21T13:21:55.590Z,57.62
2022-11-21T13:24:01.118Z,58.14
2022-11-21T13:26:57.035Z,57.07
2022-11-21T13:29:13.922Z,57.47
2022-11-21T13:31:36.193Z,57.42
2022-11-21T13:33:55.037Z,57.53
2022-11-21T13:36:00.635Z,57.88
2022-11-21T13:38:13.033Z,57.49
2022-11-21T13:41:00.917Z,57.37
2022-11-21T13:43:33.166Z,56.97
2022-11-21T13:45:48.535Z,57.40
2022-11-21T13:48:25.725Z,57.18
2022-11-21T13:51:19.636Z,57.09
2022-11-21T13:54:03.889Z,57.64
2022-11-21T13:56:36.056Z,58.00
2022-11-21T13:59:06.848Z,57.71
2022-11-21T14:01:43.287Z,57.92
2022-11-21T14:04:21.281Z,57.91
2022-11-21T14:06:48.559Z,57.62
2022-11-21T14:09:39.375Z,58.33
2022-11-21T14:11:52.006Z,57.50
2022-11-21T14:13:57.587Z,58.02
2022-11-21T14:16:31.566Z,57.92
2022-11-21T14:18:45.298Z,58.30
2022-11-21T14:20:59.941Z,57.99
2022-11-21T14:23:22.656Z,57.65
2022-11-21T14:25:39.575Z,58.30
2022-11-21T14:27:52.915Z,58.21
2022-11-21T14:29:58.424Z,58.76
2022-11-21T14:32:07.912Z,58.83
2022-11-21T14:34:13.374Z,58.29
2022-11-21T14:36:23.318Z,59.29
2022-11-21T14:38:38.294Z,59.16
2022-11-21T14:40:43.829Z,58.91
2022-11-21T14:42:49.319Z,58.90
2022-11-21T14:45:11.367Z,58.85
2022-11-21T14:47:26.338Z,58.89
2022-11-21T14:49:32.731Z,58.81
2022-11-21T14:51:40.052Z,59.31
2022-11-21T14:53:51.909Z,59.83
2022-11-21T14:56:01.508Z,59.23
2022-11-21T14:58:10.525Z,59.91
2022-11-21T15:00:58.160Z,59.25
2022-11-21T15:02:48.739Z,59.62
2022-11-21T15:04:58.368Z,60.11
2022-11-21T15:07:04.374Z,60.83
2022-11-21T15:11:54.430Z,60.78
2022-11-21T15:14:15.981Z,61.66
2022-11-21T15:16:22.999Z,62.19
2022-11-21T15:18:33.498Z,62.43
2022-11-21T15:20:39.579Z,62.64
2022-11-21T15:22:45.480Z,63.13
2022-11-21T15:24:54.656Z,62.96
2022-11-21T15:27:01.188Z,64.53
2022-11-21T15:29:23.802Z,65.31
2022-11-21T15:31:31.451Z,64.85
2022-11-21T15:36:25.744Z,66.28
2022-11-21T15:38:43.449Z,66.81
2022-11-21T15:41:27.417Z,66.42
2022-11-21T15:43:43.677Z,66.89
2022-11-21T15:45:49.241Z,67.26
2022-11-21T15:47:55.763Z,66.70
2022-11-21T15:50:03.681Z,67.10
2022-11-21T15:52:16.137Z,67.32
2022-11-21T15:54:24.675Z,66.63
2022-11-21T15:56:34.743Z,66.03
2022-11-21T15:58:40.448Z,65.85
2022-11-21T16:00:45.947Z,66.61
2022-11-21T16:02:52.339Z,66.75
2022-11-21T16:04:57.817Z,66.02
2022-11-21T16:07:03.863Z,66.46
2022-11-21T16:09:10.636Z,66.13
2022-11-21T16:11:23.931Z,65.91
2022-11-21T16:13:32.404Z,66.27
2022-11-21T16:15:38.737Z,66.47
2022-11-21T16:17:47.370Z,66.85
2022-11-21T16:19:53.072Z,65.76
2022-11-21T16:21:59.452Z,66.24
2022-11-21T16:24:06.085Z,66.82
2022-11-21T16:26:14.098Z,66.94
2022-11-21T16:28:20.523Z,66.35
2022-11-21T16:30:28.757Z,65.96
2022-11-21T16:32:34.131Z,66.34
2022-11-21T16:34:40.341Z,66.76
2022-11-21T16:36:46.060Z,66.42
2022-11-21T16:38:51.567Z,67.41
2022-11-21T16:40:59.881Z,67.07
2022-11-21T16:43:14.323Z,67.28
2022-11-21T16:45:20.513Z,67.63
2022-11-21T16:47:29.552Z,68.26
2022-11-21T16:49:35.292Z,67.71
2022-11-21T16:51:40.985Z,67.57
2022-11-21T16:53:50.404Z,67.29
2022-11-21T16:56:04.169Z,68.04
2022-11-21T16:58:09.538Z,68.35
2022-11-21T17:00:16.886Z,67.14
2022-11-21T17:02:22.341Z,67.91
2022-11-21T17:04:30.870Z,68.66
2022-11-21T17:06:37.685Z,68.86
2022-11-21T17:08:43.479Z,67.90
2022-11-21T17:10:48.890Z,67.84
2022-11-21T17:12:55.289Z,68.52
2022-11-21T17:15:00.750Z,68.71
2022-11-21T17:17:07.527Z,68.96
2022-11-21T17:19:16.433Z,67.65
2022-11-21T17:21:25.622Z,68.72
2022-11-21T17:23:34.260Z,68.17
2022-11-21T17:25:40.610Z,68.17
2022-11-21T17:27:47.158Z,67.49
2022-11-21T17:29:53.370Z,68.91
2022-11-21T17:32:00.469Z,68.63
2022-11-21T17:34:08.431Z,68.46
2022-11-21T17:36:17.654Z,68.02
2022-11-21T17:38:26.658Z,67.41
2022-11-21T17:40:32.080Z,68.04
2022-11-21T17:42:37.509Z,67.77
2022-11-21T17:44:43.711Z,68.28
2022-11-21T17:46:49.278Z,67.92
2022-11-21T17:48:58.399Z,68.33
2022-11-21T17:51:07.838Z,67.26
2022-11-21T17:53:13.585Z,68.54
2022-11-21T17:55:22.498Z,67.89
2022-11-21T17:57:28.892Z,67.03
2022-11-21T17:59:34.906Z,67.97
2022-11-21T18:01:40.735Z,68.35
2022-11-21T18:03:47.408Z,67.32
2022-11-21T18:06:03.543Z,66.95
2022-11-21T18:08:09.004Z,67.95
2022-11-21T18:10:41.328Z,68.24
2022-11-21T18:12:44.158Z,67.99
2022-11-21T18:14:49.724Z,67.45
2022-11-21T18:16:59.588Z,67.90
2022-11-21T18:19:06.622Z,67.42
2022-11-21T18:21:15.516Z,68.08
2022-11-21T18:23:22.090Z,67.94
2022-11-21T18:25:27.574Z,67.96
2022-11-21T18:27:33.559Z,68.03
2022-11-21T18:29:42.604Z,67.83
2022-11-21T18:31:48.147Z,67.98
2022-11-21T18:33:55.855Z,67.08
2022-11-21T18:36:03.058Z,67.49
2022-11-21T18:38:08.814Z,67.58
2022-11-21T18:40:15.446Z,68.00
2022-11-21T18:42:21.833Z,68.12
2022-11-21T18:44:27.367Z,67.26
2022-11-21T18:46:39.798Z,67.98
2022-11-21T18:49:02.192Z,67.69
2022-11-21T18:51:13.996Z,67.85
2022-11-21T18:53:19.548Z,67.71
2022-11-21T18:55:27.555Z,68.44
2022-11-21T18:57:34.533Z,67.73
2022-11-21T18:59:40.094Z,67.45
2022-11-21T19:01:49.938Z,67.33
2022-11-21T19:03:56.942Z,67.26
2022-11-21T19:06:03.380Z,68.20
2022-11-21T19:08:11.321Z,68.13
2022-11-21T19:10:41.395Z,68.19
2022-11-21T19:12:42.734Z,67.91
2022-11-21T19:14:52.102Z,67.42
2022-11-21T19:17:00.441Z,67.33
2022-11-21T19:21:40.389Z,67.52
2022-11-21T19:23:47.772Z,67.21
2022-11-21T19:25:53.751Z,68.07
2022-11-21T19:28:04.362Z,68.27
2022-11-21T19:30:11.112Z,68.49
2022-11-21T19:32:19.405Z,68.36
2022-11-21T19:34:25.939Z,68.75
2022-11-21T19:36:31.473Z,68.12
2022-11-21T19:38:37.451Z,67.88
2022-11-21T19:40:55.829Z,68.66
2022-11-21T19:43:01.251Z,68.05
2022-11-21T19:45:09.008Z,68.62
2022-11-21T19:47:15.426Z,68.48
2022-11-21T19:49:23.892Z,68.31
2022-11-21T19:51:35.410Z,68.04
2022-11-21T19:53:43.247Z,67.87
2022-11-21T19:55:48.670Z,68.78
2022-11-21T19:57:54.067Z,68.94
2022-11-21T20:00:00.413Z,68.40
2022-11-21T20:02:22.356Z,69.25
2022-11-21T20:04:31.115Z,68.71
2022-11-21T20:06:41.580Z,67.97
2022-11-21T20:08:51.208Z,69.38
2022-11-21T20:11:00.774Z,69.33
2022-11-21T20:13:09.875Z,68.73
2022-11-21T20:15:16.611Z,68.52
2022-11-21T20:17:22.029Z,68.05
2022-11-21T20:19:31.609Z,68.00
2022-11-21T20:21:37.831Z,67.67
2022-11-21T20:23:43.700Z,67.26
2022-11-21T20:25:54.396Z,68.22
2022-11-21T20:27:59.866Z,68.56
2022-11-21T20:30:09.327Z,67.72
2022-11-21T20:32:15.613Z,67.90
2022-11-21T20:34:21.027Z,67.82
2022-11-21T20:36:32.780Z,66.59
2022-11-21T20:38:41.643Z,67.02
2022-11-21T20:40:49.126Z,67.58
2022-11-21T20:42:56.517Z,66.80
2022-11-21T20:47:29.498Z,67.33
2022-11-21T20:49:34.916Z,66.69
2022-11-21T20:54:11.549Z,66.78
2022-11-21T20:56:17.636Z,66.06
2022-11-21T20:58:24.000Z,66.05
2022-11-21T21:00:30.208Z,65.68
2022-11-21T21:02:35.562Z,66.12
2022-11-21T21:04:42.426Z,65.74
2022-11-21T21:06:50.676Z,66.00
2022-11-21T21:08:56.539Z,65.82
2022-11-21T21:11:25.523Z,65.15
2022-11-21T21:13:35.286Z,66.36
2022-11-21T21:15:40.780Z,66.27
2022-11-21T21:17:47.270Z,65.96
2022-11-21T21:19:52.920Z,66.31
2022-11-21T21:22:01.075Z,66.82
2022-11-21T21:24:15.020Z,65.96
2022-11-21T21:26:25.915Z,66.89
2022-11-21T21:28:31.371Z,66.14
2022-11-21T21:30:37.855Z,65.65
2022-11-21T21:32:43.295Z,65.36
2022-11-21T21:34:48.839Z,65.75
2022-11-21T21:36:55.100Z,65.93
2022-11-21T21:39:04.204Z,66.91
2022-11-21T21:41:13.819Z,65.54
2022-11-21T21:43:20.097Z,65.34
2022-11-21T21:45:25.655Z,66.47
2022-11-21T21:47:31.135Z,66.66
2022-11-21T21:49:37.423Z,65.41
2022-11-21T21:51:43.161Z,65.89
2022-11-21T21:53:51.751Z,66.42
2022-11-21T21:56:04.440Z,65.12
2022-11-21T21:58:10.960Z,66.39
2022-11-21T22:00:17.766Z,64.90
2022-11-21T22:02:24.005Z,65.73
2022-11-21T22:04:31.377Z,65.52
2022-11-21T22:06:38.801Z,64.97
2022-11-21T22:08:46.986Z,64.85
2022-11-21T22:10:52.861Z,65.31
2022-11-21T22:13:01.065Z,64.80
2022-11-21T22:15:09.954Z,65.44
2022-11-21T22:17:15.615Z,65.17
2022-11-21T22:19:22.314Z,64.38
2022-11-21T22:21:32.729Z,65.18
2022-11-21T22:23:46.714Z,64.36
2022-11-21T22:26:03.569Z,64.41
2022-11-21T22:28:12.957Z,65.33
2022-11-21T22:30:20.036Z,65.09
2022-11-21T22:32:25.456Z,65.30
2022-11-21T22:34:32.322Z,65.65
2022-11-21T22:36:37.850Z,65.61
2022-11-21T22:38:43.652Z,65.85
2022-11-21T22:40:49.851Z,66.17
2022-11-21T22:42:56.064Z,65.25
2022-11-21T22:45:04.288Z,65.29
2022-11-21T22:47:10.495Z,65.10
2022-11-21T22:49:15.873Z,65.78
2022-11-21T22:51:24.975Z,64.86
2022-11-21T22:53:35.664Z,65.87
2022-11-21T22:55:44.039Z,65.28
2022-11-21T22:57:49.524Z,65.09
2022-11-21T22:59:56.481Z,66.21
2022-11-21T23:02:05.975Z,65.90
2022-11-21T23:04:17.293Z,66.29
2022-11-21T23:06:27.033Z,65.96
2022-11-21T23:08:34.177Z,65.83
2022-11-21T23:10:40.398Z,66.27
2022-11-21T23:12:47.296Z,66.39
2022-11-21T23:14:52.825Z,67.21
2022-11-21T23:16:58.155Z,66.72
2022-11-21T23:19:07.452Z,66.81
2022-11-21T23:21:15.141Z,66.41
2022-11-21T23:23:20.538Z,66.66
2022-11-21T23:25:27.326Z,66.29
2022-11-21T23:27:32.733Z,66.67
2022-11-21T23:29:38.141Z,66.80
2022-11-21T23:31:44.399Z,66.16
2022-11-21T23:33:49.863Z,67.12
2022-11-21T23:35:58.389Z,67.10
2022-11-21T23:38:06.596Z,66.49
2022-11-21T23:40:13.701Z,66.88
2022-11-21T23:42:19.101Z,66.89
2022-11-21T23:44:25.504Z,66.41
2022-11-21T23:46:31.511Z,67.30
2022-11-21T23:48:37.206Z,66.94
2022-11-21T23:50:43.478Z,66.90
2022-11-21T23:52:52.588Z,67.66
2022-11-21T23:54:58.019Z,68.03
2022-11-21T23:57:04.294Z,67.89
2022-11-21T23:59:10.016Z,68.50
